sensor_id;sensor_type;location;lat;lon;timestamp;P1;durP1;ratioP1;P2;durP2;ratioP2
20619;SDS011;10469;42.720;23.252;2022-11-15T00:01:45;59.25;;;31.95;;
20619;SDS011;10469;42.720;23.252;2022-11-15T00:04:11;67.78;;;37.35;;
20619;SDS011;10469;42.720;23.252;2022-11-15T00:06:37;57.05;;;33.28;;
20619;SDS011;10469;42.720;23.252;2022-11-15T00:09:02;60.70;;;31.95;;
20619;SDS011;10469;42.720;23.252;2022-11-15T00:11:28;57.67;;;34.28;;
20619;SDS011;10469;42.720;23.252;2022-11-15T00:13:57;56.40;;;31.25;;
20619;SDS011;10469;42.720;23.252;2022-11-15T00:16:23;53.05;;;31.08;;
20619;SDS011;10469;42.720;23.252;2022-11-15T00:18:49;62.78;;;36.33;;
20619;SDS011;10469;42.720;23.252;2022-11-15T00:21:15;63.35;;;35.28;;
20619;SDS011;10469;42.720;23.252;2022-11-15T00:23:42;58.13;;;32.30;;
20619;SDS011;10469;42.720;23.252;2022-11-15T00:26:10;65.05;;;34.78;;
20619;SDS011;10469;42.720;23.252;2022-11-15T00:28:37;60.17;;;32.22;;
20619;SDS011;10469;42.720;23.252;2022-11-15T00:31:04;51.22;;;31.50;;
20619;SDS011;10469;42.720;23.252;2022-11-15T00:33:32;65.75;;;35.60;;
20619;SDS011;10469;42.720;23.252;2022-11-15T00:36:02;63.78;;;33.58;;
20619;SDS011;10469;42.720;23.252;2022-11-15T00:38:30;61.03;;;34.28;;
20619;SDS011;10469;42.720;23.252;2022-11-15T00:40:57;58.53;;;32.63;;
20619;SDS011;10469;42.720;23.252;2022-11-15T00:43:23;53.83;;;31.33;;
20619;SDS011;10469;42.720;23.252;2022-11-15T00:45:48;68.30;;;36.55;;
20619;SDS011;10469;42.720;23.252;2022-11-15T00:48:14;62.83;;;33.50;;
20619;SDS011;10469;42.720;23.252;2022-11-15T00:50:39;62.78;;;33.83;;
20619;SDS011;10469;42.720;23.252;2022-11-15T00:53:05;60.35;;;33.50;;
20619;SDS011;10469;42.720;23.252;2022-11-15T00:55:31;61.03;;;33.53;;
20619;SDS011;10469;42.720;23.252;2022-11-15T00:57:57;65.78;;;37.08;;
20619;SDS011;10469;42.720;23.252;2022-11-15T01:00:22;67.68;;;36.88;;
20619;SDS011;10469;42.720;23.252;2022-11-15T01:02:48;67.65;;;38.67;;
20619;SDS011;10469;42.720;23.252;2022-11-15T01:05:13;65.10;;;39.33;;
20619;SDS011;10469;42.720;23.252;2022-11-15T01:07:39;67.07;;;37.60;;
20619;SDS011;10469;42.720;23.252;2022-11-15T01:10:05;68.50;;;38.17;;
20619;SDS011;10469;42.720;23.252;2022-11-15T01:12:31;70.25;;;38.53;;
20619;SDS011;10469;42.720;23.252;2022-11-15T01:14:57;71.47;;;38.95;;
20619;SDS011;10469;42.720;23.252;2022-11-15T01:17:22;70.15;;;37.88;;
20619;SDS011;10469;42.720;23.252;2022-11-15T01:19:48;67.20;;;39.22;;
20619;SDS011;10469;42.720;23.252;2022-11-15T01:22:14;65.20;;;37.00;;
20619;SDS011;10469;42.720;23.252;2022-11-15T01:24:39;68.03;;;37.70;;
20619;SDS011;10469;42.720;23.252;2022-11-15T01:27:05;67.88;;;38.25;;
20619;SDS011;10469;42.720;23.252;2022-11-15T01:29:30;66.35;;;37.53;;
20619;SDS011;10469;42.720;23.252;2022-11-15T01:31:56;67.88;;;37.70;;
20619;SDS011;10469;42.720;23.252;2022-11-15T01:34:21;69.82;;;37.90;;
20619;SDS011;10469;42.720;23.252;2022-11-15T01:36:47;77.22;;;42.05;;
20619;SDS011;10469;42.720;23.252;2022-11-15T01:39:12;80.25;;;38.15;;
20619;SDS011;10469;42.720;23.252;2022-11-15T01:41:38;70.88;;;37.50;;
20619;SDS011;10469;42.720;23.252;2022-11-15T01:46:53;66.57;;;39.13;;
20619;SDS011;10469;42.720;23.252;2022-11-15T01:49:21;72.28;;;39.58;;
20619;SDS011;10469;42.720;23.252;2022-11-15T01:51:48;66.03;;;37.45;;
20619;SDS011;10469;42.720;23.252;2022-11-15T01:54:15;71.18;;;39.55;;
20619;SDS011;10469;42.720;23.252;2022-11-15T01:56:46;81.47;;;40.90;;
20619;SDS011;10469;42.720;23.252;2022-11-15T01:59:16;78.35;;;39.05;;
20619;SDS011;10469;42.720;23.252;2022-11-15T02:01:41;73.97;;;41.42;;
20619;SDS011;10469;42.720;23.252;2022-11-15T02:04:19;68.05;;;39.25;;
20619;SDS011;10469;42.720;23.252;2022-11-15T02:06:50;71.88;;;41.58;;
20619;SDS011;10469;42.720;23.252;2022-11-15T02:09:17;73.63;;;40.40;;
20619;SDS011;10469;42.720;23.252;2022-11-15T02:11:42;73.30;;;38.08;;
20619;SDS011;10469;42.720;23.252;2022-11-15T02:14:10;72.00;;;39.00;;
20619;SDS011;10469;42.720;23.252;2022-11-15T02:27:53;64.43;;;35.72;;
20619;SDS011;10469;42.720;23.252;2022-11-15T02:33:54;65.90;;;39.13;;
20619;SDS011;10469;42.720;23.252;2022-11-15T02:39:28;66.28;;;37.17;;
20619;SDS011;10469;42.720;23.252;2022-11-15T02:42:02;73.07;;;39.20;;
20619;SDS011;10469;42.720;23.252;2022-11-15T02:44:52;71.20;;;38.97;;
20619;SDS011;10469;42.720;23.252;2022-11-15T02:47:22;70.88;;;34.92;;
20619;SDS011;10469;42.720;23.252;2022-11-15T02:49:53;66.25;;;36.50;;
20619;SDS011;10469;42.720;23.252;2022-11-15T02:52:23;67.75;;;38.63;;
20619;SDS011;10469;42.720;23.252;2022-11-15T02:54:59;68.47;;;36.88;;
20619;SDS011;10469;42.720;23.252;2022-11-15T03:00:19;72.15;;;40.67;;
20619;SDS011;10469;42.720;23.252;2022-11-15T03:11:16;66.45;;;38.13;;
20619;SDS011;10469;42.720;23.252;2022-11-15T03:13:47;66.45;;;35.55;;
20619;SDS011;10469;42.720;23.252;2022-11-15T03:16:23;66.10;;;37.72;;
20619;SDS011;10469;42.720;23.252;2022-11-15T03:21:45;64.55;;;37.83;;
20619;SDS011;10469;42.720;23.252;2022-11-15T03:24:13;64.05;;;37.30;;
20619;SDS011;10469;42.720;23.252;2022-11-15T03:26:41;72.22;;;34.53;;
20619;SDS011;10469;42.720;23.252;2022-11-15T03:29:14;63.15;;;35.92;;
20619;SDS011;10469;42.720;23.252;2022-11-15T03:31:46;90.32;;;39.42;;
20619;SDS011;10469;42.720;23.252;2022-11-15T03:35:00;86.18;;;38.05;;
20619;SDS011;10469;42.720;23.252;2022-11-15T03:37:24;85.20;;;38.63;;
20619;SDS011;10469;42.720;23.252;2022-11-15T03:40:01;141.63;;;42.10;;
20619;SDS011;10469;42.720;23.252;2022-11-15T03:42:54;182.27;;;32.55;;
20619;SDS011;10469;42.720;23.252;2022-11-15T03:45:39;175.93;;;32.67;;
20619;SDS011;10469;42.720;23.252;2022-11-15T03:48:33;133.30;;;38.72;;
20619;SDS011;10469;42.720;23.252;2022-11-15T03:51:05;233.90;;;37.58;;
20619;SDS011;10469;42.720;23.252;2022-11-15T03:53:31;198.93;;;38.63;;
20619;SDS011;10469;42.720;23.252;2022-11-15T03:55:57;154.65;;;41.00;;
20619;SDS011;10469;42.720;23.252;2022-11-15T03:58:23;128.35;;;40.72;;
20619;SDS011;10469;42.720;23.252;2022-11-15T04:00:49;154.75;;;39.80;;
20619;SDS011;10469;42.720;23.252;2022-11-15T04:03:14;126.30;;;36.47;;
20619;SDS011;10469;42.720;23.252;2022-11-15T04:05:40;155.80;;;42.47;;
20619;SDS011;10469;42.720;23.252;2022-11-15T04:08:05;141.70;;;41.30;;
20619;SDS011;10469;42.720;23.252;2022-11-15T04:10:31;187.15;;;42.20;;
20619;SDS011;10469;42.720;23.252;2022-11-15T04:12:56;132.93;;;32.45;;
20619;SDS011;10469;42.720;23.252;2022-11-15T04:15:22;98.63;;;31.58;;
20619;SDS011;10469;42.720;23.252;2022-11-15T04:17:49;65.68;;;29.70;;
20619;SDS011;10469;42.720;23.252;2022-11-15T04:20:20;116.53;;;37.15;;
20619;SDS011;10469;42.720;23.252;2022-11-15T04:23:13;93.85;;;37.30;;
20619;SDS011;10469;42.720;23.252;2022-11-15T04:26:03;81.78;;;36.10;;
20619;SDS011;10469;42.720;23.252;2022-11-15T04:28:31;89.90;;;38.17;;
20619;SDS011;10469;42.720;23.252;2022-11-15T04:30:56;107.43;;;41.85;;
20619;SDS011;10469;42.720;23.252;2022-11-15T04:33:22;127.68;;;44.03;;
20619;SDS011;10469;42.720;23.252;2022-11-15T04:35:49;108.15;;;45.08;;
20619;SDS011;10469;42.720;23.252;2022-11-15T04:38:39;116.28;;;49.33;;
20619;SDS011;10469;42.720;23.252;2022-11-15T04:41:04;111.13;;;50.08;;
20619;SDS011;10469;42.720;23.252;2022-11-15T04:43:32;110.30;;;47.13;;
20619;SDS011;10469;42.720;23.252;2022-11-15T04:45:57;119.28;;;50.47;;
20619;SDS011;10469;42.720;23.252;2022-11-15T04:48:26;119.43;;;52.55;;
20619;SDS011;10469;42.720;23.252;2022-11-15T04:50:56;140.38;;;54.75;;
20619;SDS011;10469;42.720;23.252;2022-11-15T04:53:21;154.13;;;60.35;;
20619;SDS011;10469;42.720;23.252;2022-11-15T04:55:47;148.82;;;58.60;;
20619;SDS011;10469;42.720;23.252;2022-11-15T04:58:12;144.30;;;59.03;;
20619;SDS011;10469;42.720;23.252;2022-11-15T05:00:38;152.32;;;60.35;;
20619;SDS011;10469;42.720;23.252;2022-11-15T05:03:08;170.80;;;63.92;;
20619;SDS011;10469;42.720;23.252;2022-11-15T05:05:52;172.05;;;62.55;;
20619;SDS011;10469;42.720;23.252;2022-11-15T05:08:18;197.75;;;59.55;;
20619;SDS011;10469;42.720;23.252;2022-11-15T05:10:44;213.70;;;61.80;;
20619;SDS011;10469;42.720;23.252;2022-11-15T05:13:09;294.30;;;65.70;;
20619;SDS011;10469;42.720;23.252;2022-11-15T05:15:36;166.23;;;61.83;;
20619;SDS011;10469;42.720;23.252;2022-11-15T05:18:02;192.07;;;62.38;;
20619;SDS011;10469;42.720;23.252;2022-11-15T05:20:27;205.18;;;61.30;;
20619;SDS011;10469;42.720;23.252;2022-11-15T05:22:55;167.02;;;59.97;;
20619;SDS011;10469;42.720;23.252;2022-11-15T05:25:22;188.15;;;57.38;;
20619;SDS011;10469;42.720;23.252;2022-11-15T05:27:49;169.10;;;53.92;;
20619;SDS011;10469;42.720;23.252;2022-11-15T05:30:15;172.90;;;54.83;;
20619;SDS011;10469;42.720;23.252;2022-11-15T05:32:42;153.18;;;53.30;;
20619;SDS011;10469;42.720;23.252;2022-11-15T05:35:11;160.77;;;51.67;;
20619;SDS011;10469;42.720;23.252;2022-11-15T05:37:41;158.32;;;52.42;;
20619;SDS011;10469;42.720;23.252;2022-11-15T05:40:07;143.95;;;49.13;;
20619;SDS011;10469;42.720;23.252;2022-11-15T05:42:34;149.40;;;47.55;;
20619;SDS011;10469;42.720;23.252;2022-11-15T05:45:01;146.80;;;50.47;;
20619;SDS011;10469;42.720;23.252;2022-11-15T05:47:29;144.50;;;47.55;;
20619;SDS011;10469;42.720;23.252;2022-11-15T05:50:00;176.52;;;51.80;;
20619;SDS011;10469;42.720;23.252;2022-11-15T05:52:27;130.38;;;49.97;;
20619;SDS011;10469;42.720;23.252;2022-11-15T05:55:01;159.30;;;53.92;;
20619;SDS011;10469;42.720;23.252;2022-11-15T05:57:28;145.40;;;52.38;;
20619;SDS011;10469;42.720;23.252;2022-11-15T05:59:53;132.27;;;49.63;;
20619;SDS011;10469;42.720;23.252;2022-11-15T06:02:20;141.88;;;52.60;;
20619;SDS011;10469;42.720;23.252;2022-11-15T06:04:46;126.25;;;49.55;;
20619;SDS011;10469;42.720;23.252;2022-11-15T06:07:12;133.70;;;47.28;;
20619;SDS011;10469;42.720;23.252;2022-11-15T06:09:37;129.98;;;50.53;;
20619;SDS011;10469;42.720;23.252;2022-11-15T06:12:04;124.05;;;47.65;;
20619;SDS011;10469;42.720;23.252;2022-11-15T06:14:30;125.38;;;45.28;;
20619;SDS011;10469;42.720;23.252;2022-11-15T06:16:56;135.90;;;48.55;;
20619;SDS011;10469;42.720;23.252;2022-11-15T06:19:23;153.90;;;48.58;;
20619;SDS011;10469;42.720;23.252;2022-11-15T06:21:48;145.98;;;47.05;;
20619;SDS011;10469;42.720;23.252;2022-11-15T06:24:15;143.02;;;47.45;;
20619;SDS011;10469;42.720;23.252;2022-11-15T06:26:42;160.27;;;49.88;;
20619;SDS011;10469;42.720;23.252;2022-11-15T06:29:07;163.77;;;49.95;;
20619;SDS011;10469;42.720;23.252;2022-11-15T06:31:34;145.63;;;45.90;;
20619;SDS011;10469;42.720;23.252;2022-11-15T06:34:00;155.60;;;47.33;;
20619;SDS011;10469;42.720;23.252;2022-11-15T06:36:25;157.88;;;52.85;;
20619;SDS011;10469;42.720;23.252;2022-11-15T06:38:51;185.77;;;48.15;;
20619;SDS011;10469;42.720;23.252;2022-11-15T06:41:16;163.07;;;48.67;;
20619;SDS011;10469;42.720;23.252;2022-11-15T06:43:42;168.35;;;45.13;;
20619;SDS011;10469;42.720;23.252;2022-11-15T06:46:08;207.63;;;48.45;;
20619;SDS011;10469;42.720;23.252;2022-11-15T06:48:34;184.02;;;46.42;;
20619;SDS011;10469;42.720;23.252;2022-11-15T06:51:03;198.88;;;46.97;;
20619;SDS011;10469;42.720;23.252;2022-11-15T06:53:30;198.80;;;46.78;;
20619;SDS011;10469;42.720;23.252;2022-11-15T06:56:00;197.30;;;42.22;;
20619;SDS011;10469;42.720;23.252;2022-11-15T06:58:27;192.95;;;44.90;;
20619;SDS011;10469;42.720;23.252;2022-11-15T07:00:57;154.02;;;46.65;;
20619;SDS011;10469;42.720;23.252;2022-11-15T07:03:23;138.73;;;42.60;;
20619;SDS011;10469;42.720;23.252;2022-11-15T07:05:50;103.18;;;38.03;;
20619;SDS011;10469;42.720;23.252;2022-11-15T07:08:20;112.35;;;40.60;;
20619;SDS011;10469;42.720;23.252;2022-11-15T07:10:46;121.78;;;40.45;;
20619;SDS011;10469;42.720;23.252;2022-11-15T07:13:12;112.80;;;40.05;;
20619;SDS011;10469;42.720;23.252;2022-11-15T07:15:38;136.57;;;42.35;;
20619;SDS011;10469;42.720;23.252;2022-11-15T07:18:03;149.32;;;41.75;;
20619;SDS011;10469;42.720;23.252;2022-11-15T07:20:29;202.93;;;47.85;;
20619;SDS011;10469;42.720;23.252;2022-11-15T07:23:00;127.22;;;40.33;;
20619;SDS011;10469;42.720;23.252;2022-11-15T07:25:27;124.82;;;42.53;;
20619;SDS011;10469;42.720;23.252;2022-11-15T07:27:56;132.05;;;44.15;;
20619;SDS011;10469;42.720;23.252;2022-11-15T07:30:23;134.48;;;43.58;;
20619;SDS011;10469;42.720;23.252;2022-11-15T07:32:56;162.65;;;44.03;;
20619;SDS011;10469;42.720;23.252;2022-11-15T07:35:25;118.90;;;48.30;;
20619;SDS011;10469;42.720;23.252;2022-11-15T07:37:52;152.27;;;51.53;;
20619;SDS011;10469;42.720;23.252;2022-11-15T07:40:22;137.57;;;49.22;;
20619;SDS011;10469;42.720;23.252;2022-11-15T07:42:48;144.15;;;49.80;;
20619;SDS011;10469;42.720;23.252;2022-11-15T07:45:20;137.80;;;49.50;;
20619;SDS011;10469;42.720;23.252;2022-11-15T07:47:53;135.50;;;49.88;;
20619;SDS011;10469;42.720;23.252;2022-11-15T07:50:19;133.93;;;47.38;;
20619;SDS011;10469;42.720;23.252;2022-11-15T07:52:45;154.05;;;49.53;;
20619;SDS011;10469;42.720;23.252;2022-11-15T07:55:10;142.32;;;50.45;;
20619;SDS011;10469;42.720;23.252;2022-11-15T07:57:36;151.90;;;47.92;;
20619;SDS011;10469;42.720;23.252;2022-11-15T08:00:03;119.40;;;42.15;;
20619;SDS011;10469;42.720;23.252;2022-11-15T08:02:30;110.63;;;40.95;;
20619;SDS011;10469;42.720;23.252;2022-11-15T08:04:56;103.45;;;39.13;;
20619;SDS011;10469;42.720;23.252;2022-11-15T08:07:22;112.22;;;41.17;;
20619;SDS011;10469;42.720;23.252;2022-11-15T08:09:48;104.05;;;37.90;;
20619;SDS011;10469;42.720;23.252;2022-11-15T08:12:13;101.10;;;37.45;;
20619;SDS011;10469;42.720;23.252;2022-11-15T08:14:39;104.60;;;40.03;;
20619;SDS011;10469;42.720;23.252;2022-11-15T08:17:05;106.82;;;39.63;;
20619;SDS011;10469;42.720;23.252;2022-11-15T08:19:31;104.90;;;40.53;;
20619;SDS011;10469;42.720;23.252;2022-11-15T08:21:57;103.50;;;39.65;;
20619;SDS011;10469;42.720;23.252;2022-11-15T08:24:23;115.20;;;42.97;;
20619;SDS011;10469;42.720;23.252;2022-11-15T08:26:48;121.85;;;44.92;;
20619;SDS011;10469;42.720;23.252;2022-11-15T08:29:14;115.13;;;43.42;;
20619;SDS011;10469;42.720;23.252;2022-11-15T08:31:40;122.90;;;44.60;;
20619;SDS011;10469;42.720;23.252;2022-11-15T08:34:07;124.50;;;45.10;;
20619;SDS011;10469;42.720;23.252;2022-11-15T08:36:33;114.50;;;45.05;;
20619;SDS011;10469;42.720;23.252;2022-11-15T08:38:58;136.07;;;45.58;;
20619;SDS011;10469;42.720;23.252;2022-11-15T08:41:34;124.55;;;47.38;;
20619;SDS011;10469;42.720;23.252;2022-11-15T08:46:35;123.78;;;50.17;;
20619;SDS011;10469;42.720;23.252;2022-11-15T08:49:01;122.13;;;50.10;;
20619;SDS011;10469;42.720;23.252;2022-11-15T08:51:27;121.78;;;47.50;;
20619;SDS011;10469;42.720;23.252;2022-11-15T08:53:53;122.75;;;50.60;;
20619;SDS011;10469;42.720;23.252;2022-11-15T08:56:18;118.75;;;49.88;;
20619;SDS011;10469;42.720;23.252;2022-11-15T08:58:44;126.57;;;50.05;;
20619;SDS011;10469;42.720;23.252;2022-11-15T09:01:17;140.77;;;54.13;;
20619;SDS011;10469;42.720;23.252;2022-11-15T09:03:43;126.63;;;55.15;;
20619;SDS011;10469;42.720;23.252;2022-11-15T09:06:09;127.32;;;55.65;;
20619;SDS011;10469;42.720;23.252;2022-11-15T09:08:34;136.40;;;55.72;;
20619;SDS011;10469;42.720;23.252;2022-11-15T09:11:05;136.65;;;58.10;;
20619;SDS011;10469;42.720;23.252;2022-11-15T09:13:32;139.40;;;61.72;;
20619;SDS011;10469;42.720;23.252;2022-11-15T09:15:59;142.82;;;61.42;;
20619;SDS011;10469;42.720;23.252;2022-11-15T09:18:26;145.77;;;62.60;;
20619;SDS011;10469;42.720;23.252;2022-11-15T09:20:55;150.93;;;64.38;;
20619;SDS011;10469;42.720;23.252;2022-11-15T09:23:23;159.95;;;68.25;;
20619;SDS011;10469;42.720;23.252;2022-11-15T09:25:50;162.57;;;67.68;;
20619;SDS011;10469;42.720;23.252;2022-11-15T09:28:17;161.18;;;70.53;;
20619;SDS011;10469;42.720;23.252;2022-11-15T09:30:43;166.88;;;68.95;;
20619;SDS011;10469;42.720;23.252;2022-11-15T09:33:09;161.05;;;69.63;;
20619;SDS011;10469;42.720;23.252;2022-11-15T09:35:40;175.70;;;69.35;;
20619;SDS011;10469;42.720;23.252;2022-11-15T09:38:06;164.00;;;67.13;;
20619;SDS011;10469;42.720;23.252;2022-11-15T09:40:35;159.15;;;69.47;;
20619;SDS011;10469;42.720;23.252;2022-11-15T09:43:14;170.98;;;73.07;;
20619;SDS011;10469;42.720;23.252;2022-11-15T09:51:33;161.27;;;70.55;;
20619;SDS011;10469;42.720;23.252;2022-11-15T09:54:43;159.25;;;67.32;;
20619;SDS011;10469;42.720;23.252;2022-11-15T09:56:52;144.98;;;64.35;;
20619;SDS011;10469;42.720;23.252;2022-11-15T09:59:35;142.98;;;65.95;;
20619;SDS011;10469;42.720;23.252;2022-11-15T10:04:48;157.15;;;66.47;;
20619;SDS011;10469;42.720;23.252;2022-11-15T10:07:16;150.10;;;67.72;;
20619;SDS011;10469;42.720;23.252;2022-11-15T10:12:22;146.38;;;65.53;;
20619;SDS011;10469;42.720;23.252;2022-11-15T10:14:52;154.32;;;65.30;;
20619;SDS011;10469;42.720;23.252;2022-11-15T10:20:17;159.70;;;70.97;;
20619;SDS011;10469;42.720;23.252;2022-11-15T10:22:50;175.38;;;74.25;;
20619;SDS011;10469;42.720;23.252;2022-11-15T10:25:29;158.55;;;74.13;;
20619;SDS011;10469;42.720;23.252;2022-11-15T10:30:23;166.10;;;74.95;;
20619;SDS011;10469;42.720;23.252;2022-11-15T10:32:54;153.82;;;71.78;;
20619;SDS011;10469;42.720;23.252;2022-11-15T10:35:29;145.05;;;71.88;;
20619;SDS011;10469;42.720;23.252;2022-11-15T10:38:05;159.77;;;74.28;;
20619;SDS011;10469;42.720;23.252;2022-11-15T10:40:33;144.13;;;70.90;;
20619;SDS011;10469;42.720;23.252;2022-11-15T10:43:15;154.90;;;73.60;;
20619;SDS011;10469;42.720;23.252;2022-11-15T10:45:43;145.45;;;72.45;;
20619;SDS011;10469;42.720;23.252;2022-11-15T10:50:42;139.10;;;71.65;;
20619;SDS011;10469;42.720;23.252;2022-11-15T10:55:57;147.45;;;72.50;;
20619;SDS011;10469;42.720;23.252;2022-11-15T10:58:38;129.77;;;70.47;;
20619;SDS011;10469;42.720;23.252;2022-11-15T11:03:44;127.20;;;69.60;;
20619;SDS011;10469;42.720;23.252;2022-11-15T11:06:24;123.60;;;68.53;;
20619;SDS011;10469;42.720;23.252;2022-11-15T11:08:53;124.60;;;67.70;;
20619;SDS011;10469;42.720;23.252;2022-11-15T11:11:46;127.72;;;67.55;;
20619;SDS011;10469;42.720;23.252;2022-11-15T11:14:17;120.40;;;66.65;;
20619;SDS011;10469;42.720;23.252;2022-11-15T11:16:48;109.25;;;62.80;;
20619;SDS011;10469;42.720;23.252;2022-11-15T11:30:21;94.10;;;54.00;;
20619;SDS011;10469;42.720;23.252;2022-11-15T11:33:02;85.22;;;53.25;;
20619;SDS011;10469;42.720;23.252;2022-11-15T11:41:07;96.20;;;54.58;;
20619;SDS011;10469;42.720;23.252;2022-11-15T11:49:12;87.88;;;55.25;;
20619;SDS011;10469;42.720;23.252;2022-11-15T11:51:46;89.20;;;54.75;;
20619;SDS011;10469;42.720;23.252;2022-11-15T11:54:34;92.10;;;53.97;;
20619;SDS011;10469;42.720;23.252;2022-11-15T11:57:09;91.30;;;53.80;;
20619;SDS011;10469;42.720;23.252;2022-11-15T11:59:56;93.07;;;56.08;;
20619;SDS011;10469;42.720;23.252;2022-11-15T12:07:52;91.57;;;53.30;;
20619;SDS011;10469;42.720;23.252;2022-11-15T12:10:24;93.10;;;53.65;;
20619;SDS011;10469;42.720;23.252;2022-11-15T12:18:24;97.38;;;57.78;;
20619;SDS011;10469;42.720;23.252;2022-11-15T12:20:55;98.95;;;58.33;;
20619;SDS011;10469;42.720;23.252;2022-11-15T12:23:28;100.72;;;57.47;;
20619;SDS011;10469;42.720;23.252;2022-11-15T12:26:00;90.50;;;55.33;;
20619;SDS011;10469;42.720;23.252;2022-11-15T12:31:14;96.95;;;56.67;;
20619;SDS011;10469;42.720;23.252;2022-11-15T12:34:44;107.85;;;59.38;;
20619;SDS011;10469;42.720;23.252;2022-11-15T12:36:53;99.22;;;57.67;;
20619;SDS011;10469;42.720;23.252;2022-11-15T12:39:19;100.72;;;58.92;;
20619;SDS011;10469;42.720;23.252;2022-11-15T12:47:44;97.63;;;55.33;;
20619;SDS011;10469;42.720;23.252;2022-11-15T12:49:52;101.80;;;56.28;;
20619;SDS011;10469;42.720;23.252;2022-11-15T12:52:18;106.10;;;54.30;;
20619;SDS011;10469;42.720;23.252;2022-11-15T12:54:52;99.72;;;55.08;;
20619;SDS011;10469;42.720;23.252;2022-11-15T12:57:26;104.22;;;55.83;;
20619;SDS011;10469;42.720;23.252;2022-11-15T13:02:42;91.65;;;52.70;;
20619;SDS011;10469;42.720;23.252;2022-11-15T13:20:27;95.22;;;49.10;;
20619;SDS011;10469;42.720;23.252;2022-11-15T13:23:11;89.90;;;52.08;;
20619;SDS011;10469;42.720;23.252;2022-11-15T13:25:44;95.53;;;51.55;;
20619;SDS011;10469;42.720;23.252;2022-11-15T13:31:02;87.78;;;49.78;;
20619;SDS011;10469;42.720;23.252;2022-11-15T13:33:35;91.80;;;49.28;;
20619;SDS011;10469;42.720;23.252;2022-11-15T13:36:06;89.00;;;48.15;;
20619;SDS011;10469;42.720;23.252;2022-11-15T13:38:41;92.22;;;51.10;;
20619;SDS011;10469;42.720;23.252;2022-11-15T13:41:28;90.82;;;50.67;;
20619;SDS011;10469;42.720;23.252;2022-11-15T13:43:55;96.82;;;49.17;;
20619;SDS011;10469;42.720;23.252;2022-11-15T13:46:23;89.38;;;49.22;;
20619;SDS011;10469;42.720;23.252;2022-11-15T13:49:08;91.85;;;50.53;;
20619;SDS011;10469;42.720;23.252;2022-11-15T13:54:08;89.60;;;50.30;;
20619;SDS011;10469;42.720;23.252;2022-11-15T13:56:44;87.88;;;48.92;;
20619;SDS011;10469;42.720;23.252;2022-11-15T14:01:50;82.35;;;46.47;;
20619;SDS011;10469;42.720;23.252;2022-11-15T14:04:18;82.60;;;45.45;;
20619;SDS011;10469;42.720;23.252;2022-11-15T14:06:51;86.38;;;46.53;;
20619;SDS011;10469;42.720;23.252;2022-11-15T14:11:51;83.00;;;44.42;;
20619;SDS011;10469;42.720;23.252;2022-11-15T14:14:22;82.13;;;46.50;;
20619;SDS011;10469;42.720;23.252;2022-11-15T14:16:56;84.97;;;47.47;;
20619;SDS011;10469;42.720;23.252;2022-11-15T14:24:34;86.60;;;46.33;;
20619;SDS011;10469;42.720;23.252;2022-11-15T14:27:20;87.15;;;48.33;;
20619;SDS011;10469;42.720;23.252;2022-11-15T14:29:46;82.35;;;47.10;;
20619;SDS011;10469;42.720;23.252;2022-11-15T14:34:48;99.30;;;48.63;;
20619;SDS011;10469;42.720;23.252;2022-11-15T14:37:22;87.95;;;50.05;;
20619;SDS011;10469;42.720;23.252;2022-11-15T14:39:50;88.22;;;50.22;;
20619;SDS011;10469;42.720;23.252;2022-11-15T14:42:16;89.35;;;49.10;;
20619;SDS011;10469;42.720;23.252;2022-11-15T14:44:42;93.60;;;50.30;;
20619;SDS011;10469;42.720;23.252;2022-11-15T14:47:07;98.72;;;51.08;;
20619;SDS011;10469;42.720;23.252;2022-11-15T14:49:33;97.22;;;52.20;;
20619;SDS011;10469;42.720;23.252;2022-11-15T14:51:58;95.63;;;50.97;;
20619;SDS011;10469;42.720;23.252;2022-11-15T14:54:24;94.22;;;50.70;;
20619;SDS011;10469;42.720;23.252;2022-11-15T14:56:49;106.78;;;53.35;;
20619;SDS011;10469;42.720;23.252;2022-11-15T14:59:14;98.10;;;52.63;;
20619;SDS011;10469;42.720;23.252;2022-11-15T15:01:40;97.65;;;52.25;;
20619;SDS011;10469;42.720;23.252;2022-11-15T15:04:06;102.88;;;55.90;;
20619;SDS011;10469;42.720;23.252;2022-11-15T15:06:35;109.15;;;53.08;;
20619;SDS011;10469;42.720;23.252;2022-11-15T15:09:01;99.43;;;50.65;;
20619;SDS011;10469;42.720;23.252;2022-11-15T15:11:27;99.90;;;51.60;;
20619;SDS011;10469;42.720;23.252;2022-11-15T15:13:55;89.07;;;49.08;;
20619;SDS011;10469;42.720;23.252;2022-11-15T15:16:23;92.10;;;50.88;;
20619;SDS011;10469;42.720;23.252;2022-11-15T15:18:49;89.15;;;48.40;;
20619;SDS011;10469;42.720;23.252;2022-11-15T15:21:25;98.10;;;50.50;;
20619;SDS011;10469;42.720;23.252;2022-11-15T15:23:52;88.20;;;48.47;;
20619;SDS011;10469;42.720;23.252;2022-11-15T15:26:21;90.80;;;49.97;;
20619;SDS011;10469;42.720;23.252;2022-11-15T15:28:48;93.22;;;50.70;;
20619;SDS011;10469;42.720;23.252;2022-11-15T15:31:14;95.03;;;48.72;;
20619;SDS011;10469;42.720;23.252;2022-11-15T15:33:40;89.75;;;49.67;;
20619;SDS011;10469;42.720;23.252;2022-11-15T15:36:16;92.95;;;50.47;;
20619;SDS011;10469;42.720;23.252;2022-11-15T15:38:43;97.43;;;49.95;;
20619;SDS011;10469;42.720;23.252;2022-11-15T15:41:10;105.13;;;52.97;;
20619;SDS011;10469;42.720;23.252;2022-11-15T15:43:39;97.38;;;52.78;;
20619;SDS011;10469;42.720;23.252;2022-11-15T15:46:11;100.00;;;52.70;;
20619;SDS011;10469;42.720;23.252;2022-11-15T15:48:39;110.47;;;53.58;;
20619;SDS011;10469;42.720;23.252;2022-11-15T15:51:05;103.50;;;53.50;;
20619;SDS011;10469;42.720;23.252;2022-11-15T15:53:31;98.50;;;53.00;;
20619;SDS011;10469;42.720;23.252;2022-11-15T15:55:57;97.93;;;52.30;;
20619;SDS011;10469;42.720;23.252;2022-11-15T15:58:22;98.45;;;53.10;;
20619;SDS011;10469;42.720;23.252;2022-11-15T16:00:48;97.15;;;50.72;;
20619;SDS011;10469;42.720;23.252;2022-11-15T16:03:13;99.00;;;50.42;;
20619;SDS011;10469;42.720;23.252;2022-11-15T16:05:39;98.45;;;50.83;;
20619;SDS011;10469;42.720;23.252;2022-11-15T16:08:05;94.50;;;51.97;;
20619;SDS011;10469;42.720;23.252;2022-11-15T16:10:31;94.20;;;52.03;;
20619;SDS011;10469;42.720;23.252;2022-11-15T16:13:01;97.60;;;52.75;;
20619;SDS011;10469;42.720;23.252;2022-11-15T16:15:29;106.00;;;52.88;;
20619;SDS011;10469;42.720;23.252;2022-11-15T16:17:57;110.07;;;52.72;;
20619;SDS011;10469;42.720;23.252;2022-11-15T16:22:54;104.32;;;55.90;;
20619;SDS011;10469;42.720;23.252;2022-11-15T16:25:20;103.32;;;54.58;;
20619;SDS011;10469;42.720;23.252;2022-11-15T16:27:45;105.57;;;53.85;;
20619;SDS011;10469;42.720;23.252;2022-11-15T16:30:14;110.63;;;54.15;;
20619;SDS011;10469;42.720;23.252;2022-11-15T16:32:41;106.60;;;55.85;;
20619;SDS011;10469;42.720;23.252;2022-11-15T16:35:09;101.70;;;53.22;;